Time;durP1;ratioP1;P1;durP2;ratioP2;P2;SDS_P1;SDS_P2;PMS_P1;PMS_P2;Temp;Humidity;BMP_temperature;BMP_pressure;BME280_temperature;BME280_humidity;BME280_pressure;Samples;Min_cycle;Max_cycle;Signal;HPM_P1;HPM_P2
2022/12/16 00:00:46;;;;;;;20.10;18.00;;;;;20.20;99847.00;;;;2060395;28;20226;-52
2022/12/16 00:01:47;;;;;;;20.07;18.07;;;;;20.20;99846.00;;;;2061489;28;20297;-54
2022/12/16 00:02:48;;;;;;;19.20;17.30;;;;;20.20;99846.00;;;;2060489;28;20239;-55
2022/12/16 00:03:49;;;;;;;19.93;17.93;;;;;20.20;99845.00;;;;2070503;28;20750;-54
2022/12/16 00:04:49;;;;;;;19.10;17.27;;;;;20.20;99846.00;;;;2070949;28;20228;-53
2022/12/16 00:05:50;;;;;;;20.83;18.77;;;;;20.20;99846.00;;;;2070833;28;20210;-54
2022/12/16 00:06:50;;;;;;;20.20;18.10;;;;;20.20;99851.00;;;;2070824;28;20206;-53
2022/12/16 00:07:50;;;;;;;18.50;16.70;;;;;20.20;99851.00;;;;2070933;28;20280;-54
2022/12/16 00:08:51;;;;;;;20.13;18.17;;;;;20.10;99857.00;;;;2070850;28;20210;-51
2022/12/16 00:09:51;;;;;;;20.60;18.60;;;;;20.10;99848.00;;;;2070864;28;20236;-54
2022/12/16 00:10:56;;;;;;;17.90;16.20;;;;;20.10;99850.00;;;;2067444;28;20211;-54
2022/12/16 00:11:56;;;;;;;19.23;17.38;;;;;20.10;99851.00;;;;2066319;28;20214;-53
2022/12/16 00:12:56;;;;;;;19.13;17.33;;;;;20.20;99846.00;;;;2070672;28;20222;-53
2022/12/16 00:13:57;;;;;;;18.87;17.00;;;;;20.10;99857.00;;;;2070626;28;20217;-52
2022/12/16 00:14:57;;;;;;;19.87;17.80;;;;;20.10;99858.00;;;;2070808;28;20244;-53
2022/12/16 00:15:58;;;;;;;19.03;17.13;;;;;20.10;99853.00;;;;2062666;28;20215;-52
2022/12/16 00:16:58;;;;;;;20.17;18.07;;;;;20.00;99855.00;;;;2062770;28;20258;-53
2022/12/16 00:17:58;;;;;;;18.33;16.57;;;;;20.00;99856.00;;;;2062282;28;20679;-52
2022/12/16 00:18:59;;;;;;;19.13;17.33;;;;;20.00;99855.00;;;;2061539;28;20246;-53
2022/12/16 00:20:01;;;;;;;19.60;17.67;;;;;20.00;99858.00;;;;2062727;28;20210;-54
2022/12/16 00:21:02;;;;;;;19.73;17.85;;;;;20.00;99855.00;;;;2062634;28;20250;-52
2022/12/16 00:22:02;;;;;;;20.67;18.67;;;;;20.10;99850.00;;;;2068168;28;20210;-54
2022/12/16 00:23:02;;;;;;;18.37;16.70;;;;;20.00;99849.00;;;;2069583;28;20240;-53
2022/12/16 00:24:03;;;;;;;20.17;18.17;;;;;20.00;99848.00;;;;2070506;28;20210;-52
2022/12/16 00:25:04;;;;;;;19.33;17.43;;;;;20.00;99844.00;;;;2070361;28;20207;-53
2022/12/16 00:26:04;;;;;;;18.58;16.75;;;;;20.00;99851.00;;;;2070266;28;20229;-52
2022/12/16 00:27:04;;;;;;;19.07;17.20;;;;;20.00;99854.00;;;;2058285;28;21257;-53
2022/12/16 00:28:05;;;;;;;20.03;18.10;;;;;20.00;99852.00;;;;2053598;28;20293;-53
2022/12/16 00:29:05;;;;;;;20.17;18.07;;;;;20.00;99840.00;;;;2062160;28;20226;-53
2022/12/16 00:30:06;;;;;;;19.17;17.37;;;;;20.00;99844.00;;;;2062401;28;20250;-52
2022/12/16 00:31:06;;;;;;;18.80;16.87;;;;;20.00;99848.00;;;;2062073;28;20273;-52
2022/12/16 00:32:07;;;;;;;19.27;17.47;;;;;19.90;99844.00;;;;2061159;28;20977;-52
2022/12/16 00:33:07;;;;;;;18.60;16.80;;;;;19.90;99841.00;;;;2062320;28;20225;-52
2022/12/16 00:34:07;;;;;;;18.70;16.90;;;;;19.90;99844.00;;;;2062114;28;20218;-53
2022/12/16 00:35:08;;;;;;;17.20;15.50;;;;;19.80;99846.00;;;;2062266;28;20221;-53
2022/12/16 00:36:08;;;;;;;18.33;16.53;;;;;19.90;99854.00;;;;2062082;28;20219;-50
2022/12/16 00:37:10;;;;;;;18.73;16.93;;;;;19.90;99848.00;;;;2062182;28;20273;-50
2022/12/16 00:38:10;;;;;;;19.02;17.20;;;;;19.90;99850.00;;;;2062280;28;20245;-51
2022/12/16 00:39:11;;;;;;;18.53;16.80;;;;;19.90;99854.00;;;;2062047;28;20239;-52
2022/12/16 00:40:11;;;;;;;19.40;17.40;;;;;19.90;99850.00;;;;2062290;28;20234;-53
2022/12/16 00:41:11;;;;;;;18.43;16.53;;;;;19.90;99851.00;;;;2061867;28;20230;-51
2022/12/16 00:42:12;;;;;;;18.53;16.60;;;;;19.90;99859.00;;;;2052294;28;20219;-53
2022/12/16 00:43:12;;;;;;;18.10;16.40;;;;;19.90;99855.00;;;;2053585;28;20330;-53
2022/12/16 00:44:12;;;;;;;18.20;16.40;;;;;19.80;99852.00;;;;2062411;28;20214;-52
2022/12/16 00:45:13;;;;;;;19.33;17.43;;;;;19.80;99847.00;;;;2062310;28;20698;-51
2022/12/16 00:46:13;;;;;;;18.67;16.87;;;;;19.90;99850.00;;;;2061934;28;20230;-53
2022/12/16 00:47:13;;;;;;;17.83;16.03;;;;;19.80;99850.00;;;;2061684;28;20218;-51
2022/12/16 00:48:14;;;;;;;17.30;15.70;;;;;19.80;99853.00;;;;2062060;28;20257;-52
2022/12/16 00:49:14;;;;;;;18.80;16.90;;;;;19.80;99849.00;;;;2062598;28;20214;-51
2022/12/16 00:50:15;;;;;;;18.23;16.43;;;;;19.80;99839.00;;;;2070381;28;20217;-51
2022/12/16 00:51:16;;;;;;;17.50;15.77;;;;;19.80;99843.00;;;;2061848;28;20222;-52
2022/12/16 00:52:16;;;;;;;18.97;17.17;;;;;19.80;99850.00;;;;2061000;28;20541;-51
2022/12/16 00:53:16;;;;;;;18.03;16.27;;;;;19.70;99849.00;;;;2070288;28;20410;-53
2022/12/16 00:54:16;;;;;;;18.97;17.20;;;;;19.70;99846.00;;;;2070384;28;20213;-53
2022/12/16 00:55:17;;;;;;;18.57;16.77;;;;;19.70;99848.00;;;;2067494;28;20241;-54
2022/12/16 00:56:18;;;;;;;18.97;17.17;;;;;19.80;99847.00;;;;2062287;28;20214;-51
2022/12/16 00:57:18;;;;;;;18.43;16.63;;;;;19.70;99852.00;;;;2069914;28;20218;-53
2022/12/16 00:58:18;;;;;;;18.10;16.30;;;;;19.70;99844.00;;;;2070616;28;20210;-53
2022/12/16 00:59:19;;;;;;;18.30;16.57;;;;;19.70;99834.00;;;;2070341;28;20317;-52
2022/12/16 01:00:21;;;;;;;19.03;17.13;;;;;19.70;99839.00;;;;2070670;28;20257;-52
2022/12/16 01:01:21;;;;;;;18.60;16.90;;;;;19.70;99850.00;;;;2061915;28;20215;-53
2022/12/16 01:02:21;;;;;;;17.47;15.77;;;;;19.70;99841.00;;;;2069490;28;20205;-53
2022/12/16 01:03:22;;;;;;;17.10;15.50;;;;;19.70;99846.00;;;;2070282;28;20216;-50
2022/12/16 01:04:25;;;;;;;17.53;15.90;;;;;19.70;99847.00;;;;2069545;28;20214;-53
2022/12/16 01:05:25;;;;;;;17.08;15.57;;;;;19.70;99844.00;;;;2070572;28;20222;-51
2022/12/16 01:06:26;;;;;;;17.60;15.80;;;;;19.70;99846.00;;;;2070541;28;20221;-51
2022/12/16 01:07:26;;;;;;;16.70;15.10;;;;;19.70;99836.00;;;;2070497;28;20686;-51
2022/12/16 01:08:26;;;;;;;18.57;16.57;;;;;19.70;99848.00;;;;2070517;28;20690;-53
2022/12/16 01:09:27;;;;;;;17.20;15.63;;;;;19.70;99845.00;;;;2069927;28;20699;-55
2022/12/16 01:10:27;;;;;;;17.47;15.83;;;;;19.60;99847.00;;;;2070507;28;20210;-53
2022/12/16 01:11:27;;;;;;;18.00;16.30;;;;;19.60;99836.00;;;;2070592;28;20316;-51
2022/12/16 01:12:28;;;;;;;17.07;15.37;;;;;19.60;99844.00;;;;2069840;28;20236;-54
2022/12/16 01:13:28;;;;;;;18.83;16.80;;;;;19.60;99850.00;;;;2070643;28;20210;-54
2022/12/16 01:14:28;;;;;;;17.80;16.20;;;;;19.60;99845.00;;;;2068312;28;20751;-51
2022/12/16 01:15:29;;;;;;;16.97;15.37;;;;;19.60;99853.00;;;;2070184;28;20218;-52
2022/12/16 01:16:29;;;;;;;18.50;16.80;;;;;19.60;99860.00;;;;2070628;28;20221;-52
2022/12/16 01:17:29;;;;;;;17.03;15.40;;;;;19.60;99861.00;;;;2070596;28;20225;-53
2022/12/16 01:18:30;;;;;;;18.27;16.53;;;;;19.60;99860.00;;;;2070468;28;20295;-54
2022/12/16 01:19:30;;;;;;;16.97;15.53;;;;;19.60;99865.00;;;;2056584;28;20226;-51
2022/12/16 01:20:32;;;;;;;16.53;14.93;;;;;19.60;99863.00;;;;2053459;28;20781;-51
2022/12/16 01:21:32;;;;;;;17.48;15.75;;;;;19.60;99860.00;;;;2053646;28;20220;-52
2022/12/16 01:22:32;;;;;;;16.93;15.27;;;;;19.60;99871.00;;;;2051569;28;20703;-53
2022/12/16 01:23:33;;;;;;;17.53;15.73;;;;;19.60;99866.00;;;;2062461;28;20221;-52
2022/12/16 01:24:33;;;;;;;17.67;15.87;;;;;19.60;99875.00;;;;2062231;28;20207;-52
2022/12/16 01:25:34;;;;;;;17.80;16.00;;;;;19.50;99866.00;;;;2062054;28;20305;-53
2022/12/16 01:26:34;;;;;;;17.23;15.53;;;;;19.60;99871.00;;;;2062479;28;20222;-54
2022/12/16 01:27:34;;;;;;;17.33;15.63;;;;;19.60;99875.00;;;;2062366;28;20375;-54
2022/12/16 01:28:34;;;;;;;17.43;15.77;;;;;19.60;99870.00;;;;2062450;28;20239;-53
2022/12/16 01:29:35;;;;;;;16.33;14.83;;;;;19.60;99875.00;;;;2053814;28;20212;-53
2022/12/16 01:30:35;;;;;;;18.00;16.30;;;;;19.60;99864.00;;;;2053562;28;20219;-50
2022/12/16 01:31:36;;;;;;;17.00;15.43;;;;;19.60;99870.00;;;;2066477;28;20210;-53
2022/12/16 01:32:37;;;;;;;16.63;15.18;;;;;19.60;99861.00;;;;2068729;28;20210;-53
2022/12/16 01:33:37;;;;;;;17.77;16.07;;;;;19.60;99867.00;;;;2070501;28;20686;-54
2022/12/16 01:34:40;;;;;;;17.30;15.70;;;;;19.60;99870.00;;;;2071392;28;20288;-52
2022/12/16 01:35:42;;;;;;;16.50;14.90;;;;;19.60;99875.00;;;;2063106;28;20214;-53
2022/12/16 01:36:43;;;;;;;16.92;15.20;;;;;19.50;99881.00;;;;2063591;28;20207;-52
2022/12/16 01:37:43;;;;;;;17.40;15.73;;;;;19.50;99884.00;;;;2072243;28;20685;-53
2022/12/16 01:38:44;;;;;;;16.50;14.80;;;;;19.50;99882.00;;;;2063436;28;20222;-52
2022/12/16 01:39:44;;;;;;;15.67;14.17;;;;;19.50;99885.00;;;;2061582;28;20221;-53
2022/12/16 01:40:44;;;;;;;16.97;15.40;;;;;19.50;99878.00;;;;2063676;28;20245;-52
2022/12/16 01:41:45;;;;;;;16.27;14.77;;;;;19.50;99872.00;;;;2062850;28;20218;-52
2022/12/16 01:42:45;;;;;;;16.57;15.00;;;;;19.50;99876.00;;;;2061942;28;20281;-52
2022/12/16 01:43:45;;;;;;;16.40;14.90;;;;;19.50;99876.00;;;;2063384;28;20249;-52
2022/12/16 01:44:47;;;;;;;16.87;15.33;;;;;19.50;99876.00;;;;2063778;28;20291;-53
2022/12/16 01:45:47;;;;;;;15.88;14.35;;;;;19.40;99872.00;;;;2054191;28;20230;-54
2022/12/16 01:46:55;;;;;;;16.50;15.00;;;;;19.50;99878.00;;;;2047148;28;20243;-54
2022/12/16 01:47:57;;;;;;;15.75;14.25;;;;;19.40;99887.00;;;;2059832;28;20266;-52
2022/12/16 01:49:02;;;;;;;16.10;14.60;;;;;19.50;99888.00;;;;2055895;28;20216;-53
2022/12/16 01:50:05;;;;;;;16.20;14.70;;;;;19.40;99880.00;;;;2055074;28;20687;-53
2022/12/16 01:51:26;;;;;;;16.42;14.93;;;;;19.50;99889.00;;;;2055715;28;20216;-54
2022/12/16 01:52:28;;;;;;;17.15;15.55;;;;;19.50;99889.00;;;;2062189;28;20222;-54
2022/12/16 01:53:29;;;;;;;15.80;14.27;;;;;19.50;99892.00;;;;2062791;28;20655;-53
2022/12/16 01:54:33;;;;;;;16.03;14.40;;;;;19.40;99891.00;;;;2070807;28;20221;-53
2022/12/16 01:55:36;;;;;;;15.80;14.30;;;;;19.40;99898.00;;;;2065911;28;20770;-50
2022/12/16 01:56:38;;;;;;;16.70;15.10;;;;;19.40;99889.00;;;;2063397;28;20250;-53
2022/12/16 01:57:43;;;;;;;16.60;14.95;;;;;19.40;99892.00;;;;2047020;28;20217;-51
2022/12/16 01:58:44;;;;;;;18.58;16.80;;;;;19.40;99891.00;;;;2048660;28;20306;-52
2022/12/16 01:59:45;;;;;;;17.47;15.87;;;;;19.40;99888.00;;;;2054570;28;20324;-52
2022/12/16 02:00:45;;;;;;;15.43;14.02;;;;;19.40;99901.00;;;;2054931;28;20398;-52
2022/12/16 02:01:45;;;;;;;16.57;15.07;;;;;19.40;99897.00;;;;2058426;28;20714;-53
2022/12/16 02:02:46;;;;;;;16.67;15.07;;;;;19.40;99894.00;;;;2062326;28;20814;-54
2022/12/16 02:03:46;;;;;;;17.53;15.93;;;;;19.40;99895.00;;;;2055065;28;20831;-54
2022/12/16 02:06:06;;;;;;;17.60;15.82;;;;;19.30;99899.00;;;;2061504;28;20622;-52
2022/12/16 02:07:06;;;;;;;16.67;15.13;;;;;19.40;99898.00;;;;2065749;28;20215;-53
2022/12/16 02:08:16;;;;;;;16.53;14.93;;;;;19.40;99893.00;;;;2061617;28;20299;-54
2022/12/16 02:09:17;;;;;;;15.38;13.85;;;;;19.30;99889.00;;;;2064532;28;20218;-53
2022/12/16 02:10:18;;;;;;;16.77;15.10;;;;;19.40;99888.00;;;;2063170;28;20634;-53
2022/12/16 02:11:48;;;;;;;15.98;14.40;;;;;19.30;99892.00;;;;2054960;28;20298;-55
2022/12/16 02:12:58;;;;;;;16.95;15.27;;;;;19.30;99884.00;;;;2054816;28;20262;-54
2022/12/16 02:14:27;;;;;;;15.73;14.32;;;;;19.40;99885.00;;;;2058638;28;20265;-54
2022/12/16 02:15:40;;;;;;;15.38;13.93;;;;;19.40;99883.00;;;;2062917;28;20249;-53
2022/12/16 02:16:40;;;;;;;15.93;14.43;;;;;19.40;99889.00;;;;2056441;28;20219;-54
2022/12/16 02:17:54;;;;;;;17.37;15.67;;;;;19.40;99891.00;;;;2064065;28;20226;-53
2022/12/16 02:19:00;;;;;;;15.88;14.38;;;;;19.30;99895.00;;;;2070913;28;20221;-53
2022/12/16 02:20:14;;;;;;;14.93;13.52;;;;;19.30;99892.00;;;;2055066;28;20219;-52
2022/12/16 02:21:14;;;;;;;15.23;13.73;;;;;19.30;99895.00;;;;2050721;28;20786;-52
2022/12/16 02:22:36;;;;;;;15.83;14.23;;;;;19.30;99891.00;;;;2061716;28;20218;-52
2022/12/16 02:23:39;;;;;;;15.82;14.23;;;;;19.30;99895.00;;;;2071566;28;20268;-52
2022/12/16 02:25:05;;;;;;;15.63;14.10;;;;;19.30;99897.00;;;;2071117;28;20329;-54
2022/12/16 02:26:20;;;;;;;16.35;14.85;;;;;19.30;99900.00;;;;2070665;28;20284;-53
2022/12/16 02:27:39;;;;;;;15.38;13.93;;;;;19.30;99889.00;;;;2071011;28;20686;-52
2022/12/16 02:28:52;;;;;;;16.27;14.70;;;;;19.20;99897.00;;;;2062409;28;20233;-53
2022/12/16 02:30:04;;;;;;;15.70;14.00;;;;;19.20;99898.00;;;;2063875;28;20250;-54
2022/12/16 02:31:24;;;;;;;15.45;14.07;;;;;19.20;99900.00;;;;2071173;28;20722;-52
2022/12/16 02:32:29;;;;;;;15.27;13.75;;;;;19.20;99902.00;;;;2070139;28;20221;-51
2022/12/16 02:33:51;;;;;;;16.10;14.57;;;;;19.30;99902.00;;;;2071204;28;20218;-53
2022/12/16 02:34:59;;;;;;;15.85;14.35;;;;;19.30;99901.00;;;;2068609;28;20836;-53
2022/12/16 02:36:17;;;;;;;14.88;13.50;;;;;19.30;99900.00;;;;2067268;28;20629;-52
2022/12/16 02:37:42;;;;;;;14.77;13.38;;;;;19.20;99898.00;;;;2070498;28;20216;-53
2022/12/16 02:38:56;;;;;;;15.60;14.10;;;;;19.20;99901.00;;;;2071489;28;20213;-54
2022/12/16 02:40:00;;;;;;;15.98;14.43;;;;;19.30;99897.00;;;;2070571;28;20324;-53
2022/12/16 02:41:02;;;;;;;16.20;14.70;;;;;19.30;99892.00;;;;2065787;28;20269;-53
2022/12/16 02:42:39;;;;;;;14.80;13.40;;;;;19.20;99900.00;;;;2059840;28;20219;-54
2022/12/16 02:43:53;;;;;;;15.50;14.05;;;;;19.20;99897.00;;;;2063706;28;20225;-50
2022/12/16 02:45:06;;;;;;;14.80;13.50;;;;;19.20;99905.00;;;;2054834;28;20789;-51
2022/12/16 02:46:06;;;;;;;15.45;13.85;;;;;19.10;99899.00;;;;2061927;28;20321;-54
2022/12/16 02:47:07;;;;;;;15.33;13.77;;;;;19.20;99908.00;;;;2062875;28;20210;-55
2022/12/16 02:48:07;;;;;;;16.00;14.50;;;;;19.20;99905.00;;;;2062123;28;20613;-55
2022/12/16 02:49:10;;;;;;;16.03;14.43;;;;;19.20;99899.00;;;;2065039;28;20671;-54
2022/12/16 02:50:29;;;;;;;15.65;14.10;;;;;19.20;99897.00;;;;2068717;28;20203;-53
2022/12/16 02:51:29;;;;;;;15.68;14.10;;;;;19.20;99897.00;;;;2068646;28;20221;-54
2022/12/16 02:52:31;;;;;;;15.63;13.93;;;;;19.20;99894.00;;;;2061667;28;20215;-54
2022/12/16 02:53:34;;;;;;;14.77;13.38;;;;;19.20;99888.00;;;;2062769;28;20362;-51
2022/12/16 02:54:34;;;;;;;15.90;14.43;;;;;19.20;99901.00;;;;2052837;28;20215;-51
2022/12/16 02:55:54;;;;;;;14.73;13.33;;;;;19.20;99903.00;;;;2041512;28;20220;-51
2022/12/16 02:57:21;;;;;;;16.45;14.85;;;;;19.10;99899.00;;;;2056598;28;20306;-52
2022/12/16 02:58:48;;;;;;;15.20;13.80;;;;;19.10;99896.00;;;;2070085;28;20268;-54
2022/12/16 02:59:55;;;;;;;14.73;13.40;;;;;19.10;99893.00;;;;2062423;28;20210;-51
2022/12/16 03:01:17;;;;;;;14.88;13.48;;;;;19.10;99897.00;;;;2063436;28;20285;-53
2022/12/16 03:02:46;;;;;;;15.70;14.13;;;;;19.10;99903.00;;;;2055418;28;20210;-53
2022/12/16 03:03:55;;;;;;;15.88;14.48;;;;;19.10;99901.00;;;;2066962;28;20481;-53
2022/12/16 03:05:00;;;;;;;15.30;13.70;;;;;19.10;99904.00;;;;2054844;28;20224;-52
2022/12/16 03:06:00;;;;;;;15.05;13.65;;;;;19.10;99907.00;;;;2046991;28;20902;-54
2022/12/16 03:07:00;;;;;;;15.27;13.77;;;;;19.10;99910.00;;;;2046913;28;20227;-54
2022/12/16 03:08:03;;;;;;;15.87;14.37;;;;;19.10;99905.00;;;;2062716;28;20222;-51
2022/12/16 03:09:05;;;;;;;14.02;12.73;;;;;19.10;99907.00;;;;2054566;28;20957;-53
2022/12/16 03:10:07;;;;;;;15.70;14.20;;;;;19.10;99901.00;;;;2047092;28;20283;-53
2022/12/16 03:11:07;;;;;;;15.00;13.50;;;;;19.10;99911.00;;;;2046649;28;20305;-54
2022/12/16 03:12:11;;;;;;;15.93;14.33;;;;;19.10;99909.00;;;;2053242;28;20231;-53
2022/12/16 03:13:11;;;;;;;14.65;13.25;;;;;19.10;99908.00;;;;2070021;28;20841;-52
2022/12/16 03:14:13;;;;;;;15.53;14.00;;;;;19.10;99917.00;;;;2062316;28;20207;-52
2022/12/16 03:15:15;;;;;;;14.90;13.50;;;;;19.10;99909.00;;;;2062705;28;20446;-52
2022/12/16 03:16:16;;;;;;;15.20;13.80;;;;;19.10;99906.00;;;;2062294;28;20229;-52
2022/12/16 03:17:17;;;;;;;15.18;13.68;;;;;19.10;99904.00;;;;2054682;28;20215;-52
2022/12/16 03:18:17;;;;;;;14.80;13.30;;;;;19.10;99908.00;;;;2048799;28;20260;-51
2022/12/16 03:19:18;;;;;;;12.87;11.67;;;;;19.00;99902.00;;;;2059911;28;20305;-53
2022/12/16 03:20:22;;;;;;;14.53;13.23;;;;;19.00;99911.00;;;;2060299;28;20243;-52
2022/12/16 03:21:24;;;;;;;14.63;13.23;;;;;19.00;99911.00;;;;2054357;28;20235;-54
2022/12/16 03:22:26;;;;;;;14.20;12.85;;;;;19.00;99908.00;;;;2053791;28;20212;-51
2022/12/16 03:23:29;;;;;;;15.55;13.98;;;;;19.00;99906.00;;;;2048524;28;20216;-54
2022/12/16 03:24:30;;;;;;;14.95;13.55;;;;;19.00;99907.00;;;;2054656;28;20699;-52
2022/12/16 03:25:30;;;;;;;14.50;13.13;;;;;19.00;99914.00;;;;2069688;28;20210;-53
2022/12/16 03:26:34;;;;;;;14.40;13.10;;;;;19.00;99916.00;;;;2054218;28;20227;-52
2022/12/16 03:27:56;;;;;;;14.32;12.98;;;;;19.00;99908.00;;;;2038673;29;21006;-53
2022/12/16 03:29:02;;;;;;;15.02;13.57;;;;;19.00;99917.00;;;;2047849;28;20242;-52
2022/12/16 03:30:08;;;;;;;13.80;12.48;;;;;18.90;99904.00;;;;2042038;28;20240;-53
2022/12/16 03:31:16;;;;;;;15.07;13.60;;;;;19.00;99916.00;;;;2040389;28;20265;-54
2022/12/16 03:32:22;;;;;;;13.98;12.77;;;;;19.00;99915.00;;;;2053662;28;20312;-53
2022/12/16 03:33:28;;;;;;;14.98;13.57;;;;;19.00;99913.00;;;;2062171;28;20606;-51
2022/12/16 03:34:38;;;;;;;14.30;13.02;;;;;19.00;99924.00;;;;2061719;28;20302;-52
2022/12/16 03:35:42;;;;;;;14.05;12.65;;;;;19.00;99922.00;;;;2069923;28;20650;-52
2022/12/16 03:36:44;;;;;;;14.90;13.40;;;;;19.00;99918.00;;;;2061654;28;20256;-54
2022/12/16 03:37:45;;;;;;;14.55;13.25;;;;;19.00;99917.00;;;;2046201;28;20219;-53
2022/12/16 03:38:45;;;;;;;15.00;13.60;;;;;19.00;99927.00;;;;2053989;28;20215;-53
2022/12/16 03:39:47;;;;;;;13.77;12.47;;;;;19.00;99915.00;;;;2061932;28;20218;-52
2022/12/16 03:40:48;;;;;;;13.90;12.63;;;;;19.00;99918.00;;;;2061513;28;20223;-53
2022/12/16 03:41:52;;;;;;;13.87;12.63;;;;;19.00;99922.00;;;;2060935;28;20238;-53
2022/12/16 03:42:53;;;;;;;15.07;13.57;;;;;18.90;99922.00;;;;2062423;28;20718;-51
2022/12/16 03:43:53;;;;;;;14.50;13.13;;;;;19.00;99932.00;;;;2062147;28;20346;-53
2022/12/16 03:44:53;;;;;;;14.33;12.90;;;;;19.00;99922.00;;;;2062353;28;21100;-52
2022/12/16 03:45:55;;;;;;;13.20;12.00;;;;;19.00;99923.00;;;;2062288;28;20650;-53
2022/12/16 03:46:56;;;;;;;15.50;12.75;;;;;19.00;99922.00;;;;2062309;28;20222;-52
2022/12/16 03:47:57;;;;;;;13.97;12.67;;;;;19.00;99928.00;;;;2054102;28;20335;-54
2022/12/16 03:48:57;;;;;;;13.70;12.40;;;;;18.90;99931.00;;;;2053967;28;20215;-53
2022/12/16 03:49:58;;;;;;;14.33;12.93;;;;;18.90;99930.00;;;;2054012;28;20663;-54
2022/12/16 03:50:58;;;;;;;14.53;13.03;;;;;18.90;99924.00;;;;2062792;28;20208;-53
2022/12/16 03:51:59;;;;;;;14.47;13.07;;;;;18.90;99923.00;;;;2061800;28;20683;-54
2022/12/16 03:52:59;;;;;;;14.73;13.23;;;;;19.00;99934.00;;;;2062496;28;20217;-50
2022/12/16 03:54:00;;;;;;;14.70;13.30;;;;;18.90;99933.00;;;;2062366;28;20207;-53
2022/12/16 03:55:00;;;;;;;14.23;12.93;;;;;18.90;99932.00;;;;2062210;28;20211;-53
2022/12/16 03:56:00;;;;;;;13.57;12.27;;;;;18.90;99932.00;;;;2062938;28;20358;-54
2022/12/16 03:57:01;;;;;;;13.93;12.70;;;;;18.90;99929.00;;;;2067419;28;20511;-53
2022/12/16 03:58:01;;;;;;;14.10;12.80;;;;;18.90;99932.00;;;;2070799;28;20199;-53
2022/12/16 03:59:01;;;;;;;12.70;11.50;;;;;18.90;99931.00;;;;2069216;28;20261;-54
2022/12/16 04:00:03;;;;;;;14.27;12.93;;;;;18.90;99926.00;;;;2070432;28;20211;-53
2022/12/16 04:01:04;;;;;;;13.57;12.27;;;;;18.90;99931.00;;;;2062732;28;20215;-51
2022/12/16 04:02:04;;;;;;;13.70;12.40;;;;;18.90;99932.00;;;;2061749;28;20362;-52
2022/12/16 04:03:05;;;;;;;14.43;13.13;;;;;18.90;99922.00;;;;2062617;28;20666;-53
2022/12/16 04:04:05;;;;;;;14.23;12.83;;;;;18.90;99928.00;;;;2066106;28;20225;-53
2022/12/16 04:05:06;;;;;;;13.97;12.67;;;;;18.90;99928.00;;;;2070777;28;20221;-52
2022/12/16 04:06:06;;;;;;;14.47;13.10;;;;;18.90;99932.00;;;;2062021;28;20218;-51
2022/12/16 04:07:19;;;;;;;13.90;12.60;;;;;18.90;99927.00;;;;2061963;28;20210;-53
2022/12/16 04:08:19;;;;;;;13.18;11.90;;;;;18.90;99926.00;;;;2070007;28;20210;-53
2022/12/16 04:09:19;;;;;;;13.53;12.13;;;;;18.90;99925.00;;;;2070743;28;20234;-54
2022/12/16 04:24:18;;;;;;;13.90;12.50;;;;;18.90;99927.00;;;;2070530;28;20206;-53
2022/12/16 04:24:54;;;;;;;14.18;12.75;;;;;18.80;99936.00;;;;2066697;28;20213;-50
2022/12/16 04:25:54;;;;;;;13.33;12.03;;;;;18.80;99934.00;;;;2069844;28;20221;-51
2022/12/16 04:28:14;;;;;;;13.80;12.50;;;;;18.70;99938.00;;;;2070699;28;20210;-52
2022/12/16 04:29:14;;;;;;;13.70;12.40;;;;;18.80;99943.00;;;;2061893;28;20206;-53
2022/12/16 04:30:18;;;;;;;13.17;11.90;;;;;18.80;99938.00;;;;2062067;28;20222;-50
2022/12/16 04:31:18;;;;;;;13.00;11.65;;;;;18.80;99936.00;;;;2070574;28;20236;-53
2022/12/16 04:32:19;;;;;;;13.40;12.10;;;;;18.70;99938.00;;;;2069283;28;20210;-54
2022/12/16 04:34:38;;;;;;;12.88;11.60;;;;;18.80;99947.00;;;;2061787;28;20214;-52
